Flight Track Log - Related Links

Times and Time Zones

All times are in EDT time to prevent confusion due to time zone crossing. See the N9358C flight status page for this flight to view local times or setup timezone preferences in your user account.

Time Position Orientation Groundspeed Altitude Reporting Facility
EDT Latitude Longitude Course Direction KTS MPH feet Rate Location/Type
Thu 05:17:09 PM 29.7575 -96.3161 341° North 92 106 3,300  Level Houston Center
Thu 05:18:29 PM 29.7903 -96.3292 341° North 98 113 3,600 231 Climbing Houston Center
Thu 05:19:19 PM 29.8069 -96.3372 337° Northwest 93 107 3,800 195 Climbing Houston Center
Thu 05:20:32 PM 29.8369 -96.3625 324° Northwest 99 114 4,000 145 Climbing Houston Center
Thu 05:21:23 PM 29.8567 -96.3744 332° Northwest 100 115 4,100 265 Climbing Houston Center
Thu 05:22:25 PM 29.8800 -96.3881 333° Northwest 95 109 4,500 242 Climbing Houston Center
Thu 05:23:27 PM 29.9064 -96.4022 335° Northwest 101 116 4,600 48 Climbing Houston Center
Thu 05:24:29 PM 29.9331 -96.4114 343° North 101 116 4,600 -48 Level Houston Center
Thu 05:25:31 PM 29.9644 -96.4275 336° Northwest 103 119 4,500  Descending Houston Center
Thu 05:26:33 PM 29.9886 -96.4344 346° North 109 125 4,600  Climbing Houston Center
Thu 05:27:36 PM 30.0236 -96.4464 344° North 110 127 4,500 -48 Descending Houston Center
Thu 05:28:38 PM 30.0517 -96.4564 343° North 107 123 4,500 48 Level Houston Center
Thu 05:29:40 PM 30.0758 -96.4747 327° Northwest 104 120 4,600  Climbing Houston Center
Thu 05:30:42 PM 30.1053 -96.4853 343° North 109 125 4,500  Descending Houston Center
Thu 05:31:44 PM 30.1367 -96.4986 340° North 106 122 4,600  Climbing Houston Center
Thu 05:32:46 PM 30.1669 -96.5114 340° North 113 130 4,500  Descending Houston Center
Thu 05:33:48 PM 30.1944 -96.5219 342° North 106 122 4,600  Climbing Houston Center
Thu 05:34:50 PM 30.2222 -96.5328 341° North 105 121 4,500 -48 Descending Houston Center
Thu 05:35:52 PM 30.2556 -96.5439 344° North 106 122 4,500  Level Houston Center
Thu 05:36:54 PM 30.2803 -96.5628 327° Northwest 104 120 4,500 48 Level Houston Center
Thu 05:37:57 PM 30.3050 -96.5767 334° Northwest 100 115 4,600 48 Climbing Houston Center
Thu 05:38:59 PM 30.3300 -96.5889 337° Northwest 98 113 4,600  Level Houston Center
Thu 05:40:01 PM 30.3575 -96.6017 338° Northwest 102 117 4,600  Level Houston Center
Thu 05:41:03 PM 30.3856 -96.6150 338° Northwest 105 121 4,600  Level Houston Center
Thu 05:42:05 PM 30.4136 -96.6286 337° Northwest 108 124 4,600 -49 Level Houston Center
Thu 05:43:05 PM 30.4414 -96.6439 335° Northwest 100 115 4,500  Descending Houston Center
Thu 05:44:09 PM 30.4689 -96.6511 347° North 95 109 4,600 48 Climbing Houston Center
Thu 05:45:11 PM 30.4972 -96.6656 336° Northwest 108 124 4,600  Level Houston Center
Thu 05:46:13 PM 30.5281 -96.6758 344° North 112 129 4,600  Level Houston Center
Thu 05:47:16 PM 30.5592 -96.6836 348° North 113 130 4,600  Level Houston Center
Thu 05:48:18 PM 30.5908 -96.6928 346° North 115 132 4,600  Level Houston Center
Thu 05:49:13 PM 30.6181 -96.7047 339° North 107 123 4,600  Level Houston Center
Thu 05:50:14 PM 30.6503 -96.7136 347° North 111 128 4,600  Level Houston Center
Thu 05:51:24 PM 30.6847 -96.7169 355° North 108 124 4,600  Level Houston Center
Thu 05:52:17 PM 30.7100 -96.7242 346° North 104 120 4,600 -53 Level Houston Center
Thu 05:53:18 PM 30.7394 -96.7281 354° North 107 123 4,500 -45 Descending Houston Center
Thu 05:54:30 PM 30.7717 -96.7311 355° North 104 120 4,500 45 Level Houston Center
Thu 05:55:32 PM 30.7994 -96.7347 354° North 102 117 4,600 54 Climbing Houston Center
Thu 05:56:22 PM 30.8267 -96.7431 345° North 106 122 4,600  Level Houston Center
Thu 05:57:23 PM 30.8586 -96.7494 350° North 108 124 4,600  Level Houston Center
Thu 05:58:24 PM 30.8864 -96.7536 353° North 109 125 4,600 -49 Level Houston Center
Thu 05:59:25 PM 30.9164 -96.7625 346° North 110 127 4,500  Descending Houston Center
Thu 06:00:43 PM 30.9542 -96.7819 336° Northwest 116 133 4,600 43 Climbing Houston Center
Thu 06:01:45 PM 30.9822 -96.7961 337° Northwest 114 131 4,600 -48 Level Houston Center
Thu 06:02:47 PM 31.0103 -96.8081 340° North 109 125 4,500  Descending Houston Center
Thu 06:03:50 PM 31.0450 -96.8161 349° North 108 124 4,600 48 Climbing Houston Center
Thu 06:04:52 PM 31.0747 -96.8239 347° North 108 124 4,600  Level Houston Center
Thu 06:05:54 PM 31.0978 -96.8347 338° Northwest 108 124 4,600  Level Houston Center
Thu 06:06:56 PM 31.1306 -96.8592 327° Northwest 113 130 4,600  Level Houston Center
Thu 06:07:58 PM 31.1564 -96.8769 330° Northwest 111 128 4,600  Level Houston Center
Thu 06:09:00 PM 31.1844 -96.8914 336° Northwest 110 127 4,600  Level Houston Center
Thu 06:10:02 PM 31.2153 -96.9119 330° Northwest 109 125 4,600  Level Houston Center
Thu 06:11:04 PM 31.2414 -96.9297 330° Northwest 108 124 4,600  Level Houston Center
Thu 06:12:06 PM 31.2706 -96.9408 342° North 109 125 4,600  Level Houston Center
Thu 06:13:09 PM 31.3003 -96.9514 343° North 110 127 4,600  Level Houston Center
Thu 06:14:11 PM 31.3306 -96.9622 343° North 111 128 4,600  Level Houston Center
Thu 06:15:13 PM 31.3592 -96.9714 345° North 109 125 4,600  Level Houston Center
Thu 06:16:15 PM 31.3939 -96.9811 347° North 109 125 4,600  Level Houston Center
Thu 06:17:17 PM 31.4219 -96.9911 343° North 107 123 4,600  Level Houston Center
Thu 06:18:19 PM 31.4503 -97.0050 337° Northwest 107 123 4,600  Level Houston Center
Thu 06:19:21 PM 31.4800 -97.0211 335° Northwest 111 128 4,600 -8 Level Houston Center
Thu 06:21:00 PM 31.5306 -97.0312 350° North  Level FlightAware Approximate
Thu 06:28:00 PM 31.7455 -97.0744 350° North  Level FlightAware Approximate
Thu 06:29:00 PM 31.7762 -97.0806 350° North  Level FlightAware Approximate
Thu 06:30:00 PM 31.8069 -97.0868 350° North  Level FlightAware Approximate
Thu 06:31:00 PM 31.8376 -97.0930 350° North  Level FlightAware Approximate
Thu 06:32:00 PM 31.8683 -97.0992 350° North  Level FlightAware Approximate
Thu 06:33:00 PM 31.8990 -97.1053 350° North  Level FlightAware Approximate
Thu 06:34:00 PM 31.9296 -97.1115 350° North  Level FlightAware Approximate
Thu 06:35:00 PM 31.9603 -97.1178 350° North  Level FlightAware Approximate
Thu 06:36:00 PM 31.9910 -97.1240 350° North  Level FlightAware Approximate
Thu 06:37:00 PM 32.0217 -97.1302 350° North  Level FlightAware Approximate
Thu 06:38:00 PM 32.0524 -97.1364 350° North  Level FlightAware Approximate
Thu 06:39:00 PM 32.0831 -97.1426 350° North  Level FlightAware Approximate
Thu 06:40:00 PM 32.1138 -97.1488 350° North  Level FlightAware Approximate
Thu 06:41:00 PM 32.1445 -97.1551 350° North  Level FlightAware Approximate
Thu 06:42:00 PM 32.1752 -97.1613 350° North  Level FlightAware Approximate
Thu 06:42:40 PM 32.1667 -97.2500 346° North 114 131 4,400  Level Dallas / Fort Worth TRACON
Thu 06:43:00 PM 32.2058 -97.1676 350° North  Level FlightAware Approximate
Thu 06:43:59 PM 32.2167 -97.2500 360° North 109 125 4,400  Level Dallas / Fort Worth TRACON
Thu 06:44:00 PM 32.2365 -97.1738 350° North  Level FlightAware Approximate
Thu 06:45:00 PM 32.2672 -97.1801 350° North  Level FlightAware Approximate
Thu 06:45:01 PM 32.2500 -97.2500 360° North 106 122 4,500  Level Dallas / Fort Worth TRACON
Thu 06:46:00 PM 32.2979 -97.1877 346° North  Level FlightAware Approximate
Thu 06:46:01 PM 32.2667 -97.2500 360° North 108 124 4,500  Level Dallas / Fort Worth TRACON
Thu 06:47:00 PM 32.3280 -97.1967 346° North  Level FlightAware Approximate
Thu 06:47:00 PM 32.3000 -97.2500 360° North 105 121 4,500  Level Dallas / Fort Worth TRACON
Thu 06:47:59 PM 32.3333 -97.2667 337° Northwest 109 125 4,500 -52 Level Dallas / Fort Worth TRACON
Thu 06:48:00 PM 32.3582 -97.2057 346° North  Level FlightAware Approximate
Thu 06:48:55 PM 32.3667 -97.2667 360° North 111 128 4,400  Level Dallas / Fort Worth TRACON
Thu 06:50:01 PM 32.3833 -97.2667 360° North 102 117 4,500 50 Climbing Dallas / Fort Worth TRACON
Thu 06:50:55 PM 32.4167 -97.2833 337° Northwest 110 127 4,500  Level Dallas / Fort Worth TRACON
Thu 06:51:53 PM 32.4500 -97.2833 360° North 109 125 4,500  Level Dallas / Fort Worth TRACON
Thu 06:52:58 PM 32.4833 -97.2833 360° North 106 122 4,500  Level Dallas / Fort Worth TRACON
Thu 06:54:00 PM 32.5155 -97.2833 North  Level FlightAware Approximate
Thu 06:55:00 PM 32.5333 -97.3000 North 111 128 4,500  Level Dallas / Fort Worth TRACON
Thu 06:55:55 PM 32.5667 -97.3000 360° North 111 128 4,500 -104 Level Dallas / Fort Worth TRACON
Thu 06:56:55 PM 32.6000 -97.3167 337° Northwest 111 128 4,300 -400 Descending Dallas / Fort Worth TRACON
Thu 06:57:55 PM 32.6167 -97.3333 320° Northwest 113 130 3,700 -496 Descending Dallas / Fort Worth TRACON
Thu 06:58:56 PM 32.6500 -97.3500 337° Northwest 110 127 3,300 -353 Descending Dallas / Fort Worth TRACON
Thu 06:59:54 PM 32.6833 -97.3500 360° North 104 120 3,000 -410 Descending Dallas / Fort Worth TRACON
Thu 07:00:53 PM 32.7167 -97.3500 360° North 107 123 2,500 -508 Descending Dallas / Fort Worth TRACON

Login

Don't have an account? Register now (free) for customized features, flight alerts, and more!